sensor_id;sensor_type;location;lat;lon;timestamp;temperature;humidity
64874;HTU21D;51367;45.204;38.576;2022-08-01T00:00:46;23.76;59.63
64874;HTU21D;51367;45.204;38.576;2022-08-01T00:03:12;23.72;59.72
64874;HTU21D;51367;45.204;38.576;2022-08-01T00:05:38;23.70;59.78
64874;HTU21D;51367;45.204;38.576;2022-08-01T00:08:04;23.67;59.83
64874;HTU21D;51367;45.204;38.576;2022-08-01T00:10:30;23.64;59.90
64874;HTU21D;51367;45.204;38.576;2022-08-01T00:12:56;23.62;59.95
64874;HTU21D;51367;45.204;38.576;2022-08-01T00:15:22;23.59;59.97
64874;HTU21D;51367;45.204;38.576;2022-08-01T00:17:48;23.57;60.06
64874;HTU21D;51367;45.204;38.576;2022-08-01T00:20:15;23.55;60.10
64874;HTU21D;51367;45.204;38.576;2022-08-01T00:22:41;23.53;60.15
64874;HTU21D;51367;45.204;38.576;2022-08-01T00:25:07;23.52;60.20
64874;HTU21D;51367;45.204;38.576;2022-08-01T00:27:33;23.50;60.33
64874;HTU21D;51367;45.204;38.576;2022-08-01T00:29:59;23.46;60.56
64874;HTU21D;51367;45.204;38.576;2022-08-01T00:32:26;23.44;60.60
64874;HTU21D;51367;45.204;38.576;2022-08-01T00:34:52;23.45;60.82
64874;HTU21D;51367;45.204;38.576;2022-08-01T00:37:18;23.46;60.99
64874;HTU21D;51367;45.204;38.576;2022-08-01T00:39:44;23.45;61.31
64874;HTU21D;51367;45.204;38.576;2022-08-01T00:42:11;23.44;61.12
64874;HTU21D;51367;45.204;38.576;2022-08-01T00:44:38;23.46;61.09
64874;HTU21D;51367;45.204;38.576;2022-08-01T00:47:05;23.45;61.07
64874;HTU21D;51367;45.204;38.576;2022-08-01T00:49:31;23.44;61.03
64874;HTU21D;51367;45.204;38.576;2022-08-01T00:51:58;23.44;61.03
64874;HTU21D;51367;45.204;38.576;2022-08-01T00:54:25;23.42;61.03
64874;HTU21D;51367;45.204;38.576;2022-08-01T00:56:53;23.40;61.10
64874;HTU21D;51367;45.204;38.576;2022-08-01T00:59:21;23.38;61.13
64874;HTU21D;51367;45.204;38.576;2022-08-01T01:01:48;23.37;61.18
64874;HTU21D;51367;45.204;38.576;2022-08-01T01:04:14;23.37;61.20
64874;HTU21D;51367;45.204;38.576;2022-08-01T01:09:41;23.34;61.38
64874;HTU21D;51367;45.204;38.576;2022-08-01T01:20:15;23.26;61.28
64874;HTU21D;51367;45.204;38.576;2022-08-01T01:22:57;23.27;61.34
64874;HTU21D;51367;45.204;38.576;2022-08-01T01:25:46;23.29;61.33
64874;HTU21D;51367;45.204;38.576;2022-08-01T01:28:30;23.27;61.39
64874;HTU21D;51367;45.204;38.576;2022-08-01T01:30:58;23.21;61.51
64874;HTU21D;51367;45.204;38.576;2022-08-01T01:33:26;23.16;61.76
64874;HTU21D;51367;45.204;38.576;2022-08-01T01:36:07;23.12;61.91
64874;HTU21D;51367;45.204;38.576;2022-08-01T01:38:38;23.07;61.91
64874;HTU21D;51367;45.204;38.576;2022-08-01T01:41:08;23.05;61.95
64874;HTU21D;51367;45.204;38.576;2022-08-01T01:43:36;23.02;61.99
64874;HTU21D;51367;45.204;38.576;2022-08-01T01:46:05;23.00;62.02
64874;HTU21D;51367;45.204;38.576;2022-08-01T01:48:33;23.00;62.02
64874;HTU21D;51367;45.204;38.576;2022-08-01T01:51:00;22.98;62.05
64874;HTU21D;51367;45.204;38.576;2022-08-01T01:53:28;22.98;62.07
64874;HTU21D;51367;45.204;38.576;2022-08-01T01:55:57;22.97;62.08
64874;HTU21D;51367;45.204;38.576;2022-08-01T01:58:24;22.96;62.10
64874;HTU21D;51367;45.204;38.576;2022-08-01T02:00:52;22.95;62.12
64874;HTU21D;51367;45.204;38.576;2022-08-01T02:03:20;22.92;62.17
64874;HTU21D;51367;45.204;38.576;2022-08-01T02:05:48;22.85;62.27
64874;HTU21D;51367;45.204;38.576;2022-08-01T02:08:16;22.76;62.42
64874;HTU21D;51367;45.204;38.576;2022-08-01T02:10:44;22.68;62.58
64874;HTU21D;51367;45.204;38.576;2022-08-01T02:13:32;22.61;62.70
64874;HTU21D;51367;45.204;38.576;2022-08-01T02:16:01;22.49;62.88
64874;HTU21D;51367;45.204;38.576;2022-08-01T02:18:27;22.38;63.12
64874;HTU21D;51367;45.204;38.576;2022-08-01T02:20:54;22.27;63.34
64874;HTU21D;51367;45.204;38.576;2022-08-01T02:23:22;22.21;63.52
64874;HTU21D;51367;45.204;38.576;2022-08-01T02:25:52;22.19;63.61
64874;HTU21D;51367;45.204;38.576;2022-08-01T02:28:29;22.22;63.61
64874;HTU21D;51367;45.204;38.576;2022-08-01T02:31:09;22.25;63.55
64874;HTU21D;51367;45.204;38.576;2022-08-01T02:33:40;22.27;63.45
64874;HTU21D;51367;45.204;38.576;2022-08-01T02:36:08;22.29;63.40
64874;HTU21D;51367;45.204;38.576;2022-08-01T02:38:39;22.35;63.40
64874;HTU21D;51367;45.204;38.576;2022-08-01T02:41:10;22.37;63.33
64874;HTU21D;51367;45.204;38.576;2022-08-01T02:43:42;22.41;63.25
64874;HTU21D;51367;45.204;38.576;2022-08-01T02:46:13;22.46;63.25
64874;HTU21D;51367;45.204;38.576;2022-08-01T02:48:42;22.50;63.19
64874;HTU21D;51367;45.204;38.576;2022-08-01T02:51:10;22.52;63.19
64874;HTU21D;51367;45.204;38.576;2022-08-01T02:53:38;22.55;63.17
64874;HTU21D;51367;45.204;38.576;2022-08-01T02:56:07;22.61;63.18
64874;HTU21D;51367;45.204;38.576;2022-08-01T02:58:35;22.65;63.16
64874;HTU21D;51367;45.204;38.576;2022-08-01T03:01:05;22.67;63.19
64874;HTU21D;51367;45.204;38.576;2022-08-01T03:03:32;22.70;63.21
64874;HTU21D;51367;45.204;38.576;2022-08-01T03:06:00;22.72;63.28
64874;HTU21D;51367;45.204;38.576;2022-08-01T03:08:29;22.78;63.37
64874;HTU21D;51367;45.204;38.576;2022-08-01T03:10:56;22.81;63.47
64874;HTU21D;51367;45.204;38.576;2022-08-01T03:13:25;22.84;63.52
64874;HTU21D;51367;45.204;38.576;2022-08-01T03:15:53;22.90;63.56
64874;HTU21D;51367;45.204;38.576;2022-08-01T03:18:20;22.95;63.68
64874;HTU21D;51367;45.204;38.576;2022-08-01T03:20:48;23.00;63.70
64874;HTU21D;51367;45.204;38.576;2022-08-01T03:23:15;23.07;63.77
64874;HTU21D;51367;45.204;38.576;2022-08-01T03:25:43;23.12;64.00
64874;HTU21D;51367;45.204;38.576;2022-08-01T03:28:13;23.18;63.92
64874;HTU21D;51367;45.204;38.576;2022-08-01T03:30:40;23.26;63.84
64874;HTU21D;51367;45.204;38.576;2022-08-01T03:33:07;23.34;63.85
64874;HTU21D;51367;45.204;38.576;2022-08-01T03:35:37;23.44;64.05
64874;HTU21D;51367;45.204;38.576;2022-08-01T03:38:06;23.53;64.12
64874;HTU21D;51367;45.204;38.576;2022-08-01T03:40:41;23.62;64.14
64874;HTU21D;51367;45.204;38.576;2022-08-01T03:43:31;23.74;64.10
64874;HTU21D;51367;45.204;38.576;2022-08-01T03:46:02;23.86;64.05
64874;HTU21D;51367;45.204;38.576;2022-08-01T03:48:35;23.99;64.07
64874;HTU21D;51367;45.204;38.576;2022-08-01T03:51:03;24.11;63.98
64874;HTU21D;51367;45.204;38.576;2022-08-01T03:53:30;24.24;64.16
64874;HTU21D;51367;45.204;38.576;2022-08-01T03:56:00;24.38;64.18
64874;HTU21D;51367;45.204;38.576;2022-08-01T03:58:31;24.51;64.19
64874;HTU21D;51367;45.204;38.576;2022-08-01T04:00:57;24.64;64.26
64874;HTU21D;51367;45.204;38.576;2022-08-01T04:03:24;24.78;64.28
64874;HTU21D;51367;45.204;38.576;2022-08-01T04:05:51;24.90;64.53
64874;HTU21D;51367;45.204;38.576;2022-08-01T04:08:17;25.04;64.32
64874;HTU21D;51367;45.204;38.576;2022-08-01T04:10:47;25.19;64.26
64874;HTU21D;51367;45.204;38.576;2022-08-01T04:13:13;25.33;64.44
64874;HTU21D;51367;45.204;38.576;2022-08-01T04:15:39;25.49;64.25
64874;HTU21D;51367;45.204;38.576;2022-08-01T04:18:05;25.64;64.19
64874;HTU21D;51367;45.204;38.576;2022-08-01T04:20:32;25.76;64.23
64874;HTU21D;51367;45.204;38.576;2022-08-01T04:22:58;25.91;64.13
64874;HTU21D;51367;45.204;38.576;2022-08-01T04:25:28;26.04;64.19
64874;HTU21D;51367;45.204;38.576;2022-08-01T04:27:56;26.18;64.38
64874;HTU21D;51367;45.204;38.576;2022-08-01T04:30:29;26.31;64.66
64874;HTU21D;51367;45.204;38.576;2022-08-01T04:32:57;26.48;64.87
64874;HTU21D;51367;45.204;38.576;2022-08-01T04:35:25;26.66;65.08
64874;HTU21D;51367;45.204;38.576;2022-08-01T04:37:52;26.89;64.72
64874;HTU21D;51367;45.204;38.576;2022-08-01T04:40:19;27.08;64.39
64874;HTU21D;51367;45.204;38.576;2022-08-01T04:42:49;27.23;64.05
64874;HTU21D;51367;45.204;38.576;2022-08-01T04:45:16;27.36;63.81
64874;HTU21D;51367;45.204;38.576;2022-08-01T04:47:43;27.45;63.75
64874;HTU21D;51367;45.204;38.576;2022-08-01T04:50:10;27.54;63.77
64874;HTU21D;51367;45.204;38.576;2022-08-01T04:52:37;27.60;63.88
64874;HTU21D;51367;45.204;38.576;2022-08-01T04:55:04;27.67;63.93
64874;HTU21D;51367;45.204;38.576;2022-08-01T04:57:37;27.75;63.87
64874;HTU21D;51367;45.204;38.576;2022-08-01T05:00:04;27.84;63.87
64874;HTU21D;51367;45.204;38.576;2022-08-01T05:02:30;27.93;63.95
64874;HTU21D;51367;45.204;38.576;2022-08-01T05:04:56;28.02;63.81
64874;HTU21D;51367;45.204;38.576;2022-08-01T05:07:22;28.10;63.80
64874;HTU21D;51367;45.204;38.576;2022-08-01T05:09:48;28.21;63.78
64874;HTU21D;51367;45.204;38.576;2022-08-01T05:12:14;28.30;63.74
64874;HTU21D;51367;45.204;38.576;2022-08-01T05:14:41;28.41;63.82
64874;HTU21D;51367;45.204;38.576;2022-08-01T05:17:08;28.47;63.81
64874;HTU21D;51367;45.204;38.576;2022-08-01T05:19:36;28.54;63.86
64874;HTU21D;51367;45.204;38.576;2022-08-01T05:22:07;28.60;63.83
64874;HTU21D;51367;45.204;38.576;2022-08-01T05:24:35;28.69;63.78
64874;HTU21D;51367;45.204;38.576;2022-08-01T05:27:02;28.79;63.72
64874;HTU21D;51367;45.204;38.576;2022-08-01T05:29:29;28.86;63.83
64874;HTU21D;51367;45.204;38.576;2022-08-01T05:31:55;28.93;63.77
64874;HTU21D;51367;45.204;38.576;2022-08-01T05:34:22;29.01;63.64
64874;HTU21D;51367;45.204;38.576;2022-08-01T05:36:48;29.11;63.60
64874;HTU21D;51367;45.204;38.576;2022-08-01T05:39:14;29.15;63.51
64874;HTU21D;51367;45.204;38.576;2022-08-01T05:41:41;29.21;63.50
64874;HTU21D;51367;45.204;38.576;2022-08-01T05:44:08;29.30;63.36
64874;HTU21D;51367;45.204;38.576;2022-08-01T05:46:34;29.39;63.24
64874;HTU21D;51367;45.204;38.576;2022-08-01T05:49:02;29.51;63.09
64874;HTU21D;51367;45.204;38.576;2022-08-01T05:51:28;29.60;62.89
64874;HTU21D;51367;45.204;38.576;2022-08-01T05:53:55;29.72;62.88
64874;HTU21D;51367;45.204;38.576;2022-08-01T05:56:21;29.86;62.75
64874;HTU21D;51367;45.204;38.576;2022-08-01T05:58:48;30.01;62.61
64874;HTU21D;51367;45.204;38.576;2022-08-01T06:01:15;30.07;62.74
64874;HTU21D;51367;45.204;38.576;2022-08-01T06:03:41;30.17;63.12
64874;HTU21D;51367;45.204;38.576;2022-08-01T06:06:07;30.40;63.18
64874;HTU21D;51367;45.204;38.576;2022-08-01T06:08:33;30.68;62.89
64874;HTU21D;51367;45.204;38.576;2022-08-01T06:11:00;30.93;62.59
64874;HTU21D;51367;45.204;38.576;2022-08-01T06:13:26;31.10;62.03
64874;HTU21D;51367;45.204;38.576;2022-08-01T06:15:53;31.24;61.77
64874;HTU21D;51367;45.204;38.576;2022-08-01T06:18:19;31.44;61.36
64874;HTU21D;51367;45.204;38.576;2022-08-01T06:20:45;31.63;60.72
64874;HTU21D;51367;45.204;38.576;2022-08-01T06:23:11;31.73;60.22
64874;HTU21D;51367;45.204;38.576;2022-08-01T06:25:37;31.63;59.95
64874;HTU21D;51367;45.204;38.576;2022-08-01T06:28:03;31.52;60.27
64874;HTU21D;51367;45.204;38.576;2022-08-01T06:30:30;31.44;60.41
64874;HTU21D;51367;45.204;38.576;2022-08-01T06:32:56;31.42;60.57
64874;HTU21D;51367;45.204;38.576;2022-08-01T06:35:24;31.45;60.46
64874;HTU21D;51367;45.204;38.576;2022-08-01T06:37:50;31.53;60.16
64874;HTU21D;51367;45.204;38.576;2022-08-01T06:40:16;31.67;59.80
64874;HTU21D;51367;45.204;38.576;2022-08-01T06:42:44;31.78;59.55
64874;HTU21D;51367;45.204;38.576;2022-08-01T06:45:12;31.88;59.37
64874;HTU21D;51367;45.204;38.576;2022-08-01T06:47:40;32.03;59.16
64874;HTU21D;51367;45.204;38.576;2022-08-01T06:50:08;32.14;58.97
64874;HTU21D;51367;45.204;38.576;2022-08-01T06:52:35;32.16;58.96
64874;HTU21D;51367;45.204;38.576;2022-08-01T06:55:02;32.19;58.87
64874;HTU21D;51367;45.204;38.576;2022-08-01T06:57:28;32.23;58.84
64874;HTU21D;51367;45.204;38.576;2022-08-01T06:59:55;32.31;58.61
64874;HTU21D;51367;45.204;38.576;2022-08-01T07:02:22;32.42;58.41
64874;HTU21D;51367;45.204;38.576;2022-08-01T07:04:48;32.49;58.17
64874;HTU21D;51367;45.204;38.576;2022-08-01T07:07:14;32.47;58.26
64874;HTU21D;51367;45.204;38.576;2022-08-01T07:09:40;32.45;58.49
64874;HTU21D;51367;45.204;38.576;2022-08-01T07:12:09;32.59;58.30
64874;HTU21D;51367;45.204;38.576;2022-08-01T07:14:35;32.76;58.08
64874;HTU21D;51367;45.204;38.576;2022-08-01T07:17:01;32.91;57.51
64874;HTU21D;51367;45.204;38.576;2022-08-01T07:19:27;33.06;57.24
64874;HTU21D;51367;45.204;38.576;2022-08-01T07:21:53;33.27;57.02
64874;HTU21D;51367;45.204;38.576;2022-08-01T07:24:19;33.49;56.79
64874;HTU21D;51367;45.204;38.576;2022-08-01T07:26:47;33.75;56.57
64874;HTU21D;51367;45.204;38.576;2022-08-01T07:29:13;34.02;56.26
64874;HTU21D;51367;45.204;38.576;2022-08-01T07:31:39;34.25;55.90
64874;HTU21D;51367;45.204;38.576;2022-08-01T07:34:05;34.47;55.45
64874;HTU21D;51367;45.204;38.576;2022-08-01T07:36:32;34.67;55.27
64874;HTU21D;51367;45.204;38.576;2022-08-01T07:38:58;34.75;55.33
64874;HTU21D;51367;45.204;38.576;2022-08-01T07:41:24;34.92;55.18
64874;HTU21D;51367;45.204;38.576;2022-08-01T07:43:50;35.13;54.48
64874;HTU21D;51367;45.204;38.576;2022-08-01T07:46:16;35.24;54.12
64874;HTU21D;51367;45.204;38.576;2022-08-01T07:48:43;35.33;53.91
64874;HTU21D;51367;45.204;38.576;2022-08-01T07:51:09;35.37;53.46
64874;HTU21D;51367;45.204;38.576;2022-08-01T07:53:36;35.27;53.81
64874;HTU21D;51367;45.204;38.576;2022-08-01T07:56:03;35.30;53.88
64874;HTU21D;51367;45.204;38.576;2022-08-01T07:58:32;35.31;53.87
64874;HTU21D;51367;45.204;38.576;2022-08-01T08:00:58;35.31;53.84
64874;HTU21D;51367;45.204;38.576;2022-08-01T08:03:24;35.36;53.78
64874;HTU21D;51367;45.204;38.576;2022-08-01T08:05:51;35.37;53.42
64874;HTU21D;51367;45.204;38.576;2022-08-01T08:08:17;35.34;53.43
64874;HTU21D;51367;45.204;38.576;2022-08-01T08:10:44;35.34;53.32
64874;HTU21D;51367;45.204;38.576;2022-08-01T08:13:10;35.36;53.20
64874;HTU21D;51367;45.204;38.576;2022-08-01T08:15:36;35.40;53.19
64874;HTU21D;51367;45.204;38.576;2022-08-01T08:18:03;35.50;53.15
64874;HTU21D;51367;45.204;38.576;2022-08-01T08:20:29;35.56;52.83
64874;HTU21D;51367;45.204;38.576;2022-08-01T08:22:56;35.54;52.80
64874;HTU21D;51367;45.204;38.576;2022-08-01T08:25:25;35.54;52.49
64874;HTU21D;51367;45.204;38.576;2022-08-01T08:27:51;35.49;52.70
64874;HTU21D;51367;45.204;38.576;2022-08-01T08:30:18;35.53;52.36
64874;HTU21D;51367;45.204;38.576;2022-08-01T08:32:44;35.42;52.46
64874;HTU21D;51367;45.204;38.576;2022-08-01T08:35:10;35.34;52.43
64874;HTU21D;51367;45.204;38.576;2022-08-01T08:37:38;35.29;52.47
64874;HTU21D;51367;45.204;38.576;2022-08-01T08:40:04;35.20;52.41
64874;HTU21D;51367;45.204;38.576;2022-08-01T08:42:31;35.01;52.74
64874;HTU21D;51367;45.204;38.576;2022-08-01T08:44:58;34.91;53.04
64874;HTU21D;51367;45.204;38.576;2022-08-01T08:47:25;34.84;53.36
64874;HTU21D;51367;45.204;38.576;2022-08-01T08:49:54;34.95;53.48
64874;HTU21D;51367;45.204;38.576;2022-08-01T08:52:21;35.09;53.22
64874;HTU21D;51367;45.204;38.576;2022-08-01T08:54:49;35.18;53.06
64874;HTU21D;51367;45.204;38.576;2022-08-01T08:57:19;35.27;52.94
64874;HTU21D;51367;45.204;38.576;2022-08-01T08:59:46;35.30;52.81
64874;HTU21D;51367;45.204;38.576;2022-08-01T09:02:12;35.35;52.75
64874;HTU21D;51367;45.204;38.576;2022-08-01T09:04:38;35.33;52.64
64874;HTU21D;51367;45.204;38.576;2022-08-01T09:07:06;35.27;52.66
64874;HTU21D;51367;45.204;38.576;2022-08-01T09:09:33;35.26;52.70
64874;HTU21D;51367;45.204;38.576;2022-08-01T09:12:00;35.28;52.78
64874;HTU21D;51367;45.204;38.576;2022-08-01T09:14:26;35.37;52.62
64874;HTU21D;51367;45.204;38.576;2022-08-01T09:17:07;35.43;52.54
64874;HTU21D;51367;45.204;38.576;2022-08-01T09:19:37;35.47;52.42
64874;HTU21D;51367;45.204;38.576;2022-08-01T09:22:06;35.51;52.41
64874;HTU21D;51367;45.204;38.576;2022-08-01T09:24:33;35.62;52.27
64874;HTU21D;51367;45.204;38.576;2022-08-01T09:27:00;35.55;52.18
64874;HTU21D;51367;45.204;38.576;2022-08-01T09:29:29;35.43;51.97
64874;HTU21D;51367;45.204;38.576;2022-08-01T09:31:56;35.34;52.46
64874;HTU21D;51367;45.204;38.576;2022-08-01T09:34:28;35.27;52.48
64874;HTU21D;51367;45.204;38.576;2022-08-01T09:36:55;35.20;52.47
64874;HTU21D;51367;45.204;38.576;2022-08-01T09:41:49;34.84;52.47
64874;HTU21D;51367;45.204;38.576;2022-08-01T09:44:17;34.67;52.82
64874;HTU21D;51367;45.204;38.576;2022-08-01T09:46:53;34.65;53.00
64874;HTU21D;51367;45.204;38.576;2022-08-01T09:49:34;34.68;52.80
64874;HTU21D;51367;45.204;38.576;2022-08-01T09:52:20;34.71;52.83
64874;HTU21D;51367;45.204;38.576;2022-08-01T09:54:59;34.89;52.78
64874;HTU21D;51367;45.204;38.576;2022-08-01T09:57:27;35.08;52.51
64874;HTU21D;51367;45.204;38.576;2022-08-01T09:59:56;35.26;52.28
64874;HTU21D;51367;45.204;38.576;2022-08-01T10:02:35;35.37;52.09
64874;HTU21D;51367;45.204;38.576;2022-08-01T10:05:04;35.49;51.91
64874;HTU21D;51367;45.204;38.576;2022-08-01T10:07:30;35.58;51.71
64874;HTU21D;51367;45.204;38.576;2022-08-01T10:10:13;35.70;51.50
64874;HTU21D;51367;45.204;38.576;2022-08-01T10:12:40;35.72;51.30
64874;HTU21D;51367;45.204;38.576;2022-08-01T10:15:07;35.75;51.27
64874;HTU21D;51367;45.204;38.576;2022-08-01T10:17:34;35.79;51.11
64874;HTU21D;51367;45.204;38.576;2022-08-01T10:20:05;35.82;50.94
64874;HTU21D;51367;45.204;38.576;2022-08-01T10:22:31;35.90;51.01
64874;HTU21D;51367;45.204;38.576;2022-08-01T10:25:03;36.04;50.79
64874;HTU21D;51367;45.204;38.576;2022-08-01T10:27:32;36.08;50.41
64874;HTU21D;51367;45.204;38.576;2022-08-01T10:30:03;36.01;50.31
64874;HTU21D;51367;45.204;38.576;2022-08-01T10:32:31;35.86;50.38
64874;HTU21D;51367;45.204;38.576;2022-08-01T10:34:58;35.71;50.50
64874;HTU21D;51367;45.204;38.576;2022-08-01T10:37:25;35.56;50.53
64874;HTU21D;51367;45.204;38.576;2022-08-01T10:39:53;35.40;50.72
64874;HTU21D;51367;45.204;38.576;2022-08-01T10:42:19;35.27;50.72
64874;HTU21D;51367;45.204;38.576;2022-08-01T10:44:46;35.10;50.75
64874;HTU21D;51367;45.204;38.576;2022-08-01T10:47:23;34.94;50.85
64874;HTU21D;51367;45.204;38.576;2022-08-01T10:49:56;34.77;51.03
64874;HTU21D;51367;45.204;38.576;2022-08-01T10:52:24;34.64;51.19
64874;HTU21D;51367;45.204;38.576;2022-08-01T10:55:02;34.52;51.28
64874;HTU21D;51367;45.204;38.576;2022-08-01T10:57:45;34.44;51.35
64874;HTU21D;51367;45.204;38.576;2022-08-01T11:00:19;34.32;51.40
64874;HTU21D;51367;45.204;38.576;2022-08-01T11:03:00;34.20;51.49
64874;HTU21D;51367;45.204;38.576;2022-08-01T11:05:30;34.09;51.69
64874;HTU21D;51367;45.204;38.576;2022-08-01T11:08:01;34.01;51.78
64874;HTU21D;51367;45.204;38.576;2022-08-01T11:12:54;33.89;51.99
64874;HTU21D;51367;45.204;38.576;2022-08-01T11:15:21;33.85;52.07
64874;HTU21D;51367;45.204;38.576;2022-08-01T11:17:53;33.81;52.14
64874;HTU21D;51367;45.204;38.576;2022-08-01T11:20:24;33.76;52.23
64874;HTU21D;51367;45.204;38.576;2022-08-01T11:33:12;33.70;52.51
64874;HTU21D;51367;45.204;38.576;2022-08-01T11:38:40;33.85;52.55
64874;HTU21D;51367;45.204;38.576;2022-08-01T11:41:15;34.00;52.42
64874;HTU21D;51367;45.204;38.576;2022-08-01T11:44:00;34.14;52.27
64874;HTU21D;51367;45.204;38.576;2022-08-01T11:46:49;34.33;52.11
64874;HTU21D;51367;45.204;38.576;2022-08-01T11:54:28;34.85;51.21
64874;HTU21D;51367;45.204;38.576;2022-08-01T11:57:00;34.97;51.21
64874;HTU21D;51367;45.204;38.576;2022-08-01T11:59:26;35.14;51.16
64874;HTU21D;51367;45.204;38.576;2022-08-01T12:01:53;35.33;50.93
64874;HTU21D;51367;45.204;38.576;2022-08-01T12:04:20;35.36;50.47
64874;HTU21D;51367;45.204;38.576;2022-08-01T12:06:46;35.15;50.48
64874;HTU21D;51367;45.204;38.576;2022-08-01T12:09:16;34.82;51.02
64874;HTU21D;51367;45.204;38.576;2022-08-01T12:11:42;34.65;51.48
64874;HTU21D;51367;45.204;38.576;2022-08-01T12:14:08;34.57;51.53
64874;HTU21D;51367;45.204;38.576;2022-08-01T12:16:34;34.30;51.79
64874;HTU21D;51367;45.204;38.576;2022-08-01T12:19:00;34.06;52.23
64874;HTU21D;51367;45.204;38.576;2022-08-01T12:21:27;33.96;52.46
64874;HTU21D;51367;45.204;38.576;2022-08-01T12:24:02;33.88;52.68
64874;HTU21D;51367;45.204;38.576;2022-08-01T12:26:41;33.77;52.93
64874;HTU21D;51367;45.204;38.576;2022-08-01T12:29:07;33.68;53.10
64874;HTU21D;51367;45.204;38.576;2022-08-01T12:31:34;33.61;53.28
64874;HTU21D;51367;45.204;38.576;2022-08-01T12:34:26;33.52;53.52
64874;HTU21D;51367;45.204;38.576;2022-08-01T12:37:00;33.29;54.01
64874;HTU21D;51367;45.204;38.576;2022-08-01T12:39:33;33.03;54.60
64874;HTU21D;51367;45.204;38.576;2022-08-01T12:42:00;32.78;55.14
64874;HTU21D;51367;45.204;38.576;2022-08-01T12:44:29;32.57;55.63
64874;HTU21D;51367;45.204;38.576;2022-08-01T12:46:56;32.38;55.98
64874;HTU21D;51367;45.204;38.576;2022-08-01T12:49:23;32.20;56.32
64874;HTU21D;51367;45.204;38.576;2022-08-01T12:51:50;32.08;56.57
64874;HTU21D;51367;45.204;38.576;2022-08-01T12:54:16;32.02;56.66
64874;HTU21D;51367;45.204;38.576;2022-08-01T12:56:42;31.95;56.86
64874;HTU21D;51367;45.204;38.576;2022-08-01T13:01:46;31.63;57.63
64874;HTU21D;51367;45.204;38.576;2022-08-01T13:04:12;31.52;57.83
64874;HTU21D;51367;45.204;38.576;2022-08-01T13:06:38;31.44;57.96
64874;HTU21D;51367;45.204;38.576;2022-08-01T13:09:09;31.39;58.14
64874;HTU21D;51367;45.204;38.576;2022-08-01T13:11:37;31.34;58.14
64874;HTU21D;51367;45.204;38.576;2022-08-01T13:14:03;31.23;58.32
64874;HTU21D;51367;45.204;38.576;2022-08-01T13:16:29;31.14;58.49
64874;HTU21D;51367;45.204;38.576;2022-08-01T13:18:57;30.97;58.90
64874;HTU21D;51367;45.204;38.576;2022-08-01T13:21:28;30.74;59.52
64874;HTU21D;51367;45.204;38.576;2022-08-01T13:24:12;30.47;60.28
64874;HTU21D;51367;45.204;38.576;2022-08-01T13:29:09;29.90;61.12
64874;HTU21D;51367;45.204;38.576;2022-08-01T13:31:37;29.75;61.25
64874;HTU21D;51367;45.204;38.576;2022-08-01T13:34:04;29.65;61.40
64874;HTU21D;51367;45.204;38.576;2022-08-01T13:36:31;29.61;61.47
64874;HTU21D;51367;45.204;38.576;2022-08-01T13:38:58;29.56;61.62
64874;HTU21D;51367;45.204;38.576;2022-08-01T13:41:42;29.52;61.69
64874;HTU21D;51367;45.204;38.576;2022-08-01T13:44:09;29.47;61.79
64874;HTU21D;51367;45.204;38.576;2022-08-01T13:46:37;29.47;61.89
64874;HTU21D;51367;45.204;38.576;2022-08-01T13:49:05;29.44;61.99
64874;HTU21D;51367;45.204;38.576;2022-08-01T13:51:31;29.51;62.13
64874;HTU21D;51367;45.204;38.576;2022-08-01T13:53:58;29.68;62.11
64874;HTU21D;51367;45.204;38.576;2022-08-01T13:56:24;29.81;62.02
64874;HTU21D;51367;45.204;38.576;2022-08-01T13:58:50;29.89;61.98
64874;HTU21D;51367;45.204;38.576;2022-08-01T14:01:16;29.93;62.02
64874;HTU21D;51367;45.204;38.576;2022-08-01T14:03:42;29.97;62.04
64874;HTU21D;51367;45.204;38.576;2022-08-01T14:06:09;30.01;62.08
64874;HTU21D;51367;45.204;38.576;2022-08-01T14:08:35;30.04;62.12
64874;HTU21D;51367;45.204;38.576;2022-08-01T14:11:01;30.05;62.21
64874;HTU21D;51367;45.204;38.576;2022-08-01T14:13:27;30.09;62.31
64874;HTU21D;51367;45.204;38.576;2022-08-01T14:15:54;30.10;62.37
64874;HTU21D;51367;45.204;38.576;2022-08-01T14:18:20;30.15;62.44
64874;HTU21D;51367;45.204;38.576;2022-08-01T14:20:46;30.22;62.49
64874;HTU21D;51367;45.204;38.576;2022-08-01T14:23:12;30.36;62.47
64874;HTU21D;51367;45.204;38.576;2022-08-01T14:25:39;30.51;62.50
64874;HTU21D;51367;45.204;38.576;2022-08-01T14:28:09;30.67;62.33
64874;HTU21D;51367;45.204;38.576;2022-08-01T14:30:36;30.82;62.10
64874;HTU21D;51367;45.204;38.576;2022-08-01T14:33:02;30.92;61.94
64874;HTU21D;51367;45.204;38.576;2022-08-01T14:35:28;31.01;61.79
64874;HTU21D;51367;45.204;38.576;2022-08-01T14:37:54;31.08;61.66
64874;HTU21D;51367;45.204;38.576;2022-08-01T14:40:21;31.08;61.53
64874;HTU21D;51367;45.204;38.576;2022-08-01T14:42:47;31.01;61.48
64874;HTU21D;51367;45.204;38.576;2022-08-01T14:45:13;30.93;61.57
64874;HTU21D;51367;45.204;38.576;2022-08-01T14:47:41;30.82;61.64
64874;HTU21D;51367;45.204;38.576;2022-08-01T14:50:10;30.71;61.72
64874;HTU21D;51367;45.204;38.576;2022-08-01T14:52:38;30.63;61.86
64874;HTU21D;51367;45.204;38.576;2022-08-01T14:55:05;30.53;62.05
64874;HTU21D;51367;45.204;38.576;2022-08-01T14:57:32;30.41;62.08
64874;HTU21D;51367;45.204;38.576;2022-08-01T14:59:58;30.31;62.02
64874;HTU21D;51367;45.204;38.576;2022-08-01T15:02:24;30.19;61.96
64874;HTU21D;51367;45.204;38.576;2022-08-01T15:04:50;30.10;61.94
64874;HTU21D;51367;45.204;38.576;2022-08-01T15:07:17;30.00;61.58
64874;HTU21D;51367;45.204;38.576;2022-08-01T15:09:43;29.83;61.56
64874;HTU21D;51367;45.204;38.576;2022-08-01T15:12:10;29.72;61.63
64874;HTU21D;51367;45.204;38.576;2022-08-01T15:14:37;29.61;61.67
64874;HTU21D;51367;45.204;38.576;2022-08-01T15:17:20;29.51;61.76
64874;HTU21D;51367;45.204;38.576;2022-08-01T15:19:48;29.39;61.84
64874;HTU21D;51367;45.204;38.576;2022-08-01T15:22:14;29.31;61.95
64874;HTU21D;51367;45.204;38.576;2022-08-01T15:24:41;29.20;62.07
64874;HTU21D;51367;45.204;38.576;2022-08-01T15:27:08;29.13;62.14
64874;HTU21D;51367;45.204;38.576;2022-08-01T15:29:34;29.05;62.22
64874;HTU21D;51367;45.204;38.576;2022-08-01T15:32:02;28.99;62.26
64874;HTU21D;51367;45.204;38.576;2022-08-01T15:34:29;28.88;62.27
64874;HTU21D;51367;45.204;38.576;2022-08-01T15:36:55;28.78;62.31
64874;HTU21D;51367;45.204;38.576;2022-08-01T15:39:21;28.71;62.36
64874;HTU21D;51367;45.204;38.576;2022-08-01T15:41:47;28.61;62.39
64874;HTU21D;51367;45.204;38.576;2022-08-01T15:44:13;28.54;62.38
64874;HTU21D;51367;45.204;38.576;2022-08-01T15:46:40;28.49;62.34
64874;HTU21D;51367;45.204;38.576;2022-08-01T15:49:06;28.47;62.31